Terminal Aerodrome Forecast
Issued by NWS

Home | Current Version | Previous Version | Text Only | Print | Product List | Glossary On
Versions: 1 2 3 4 5 6 7 8 9 10 11 12 13 14
000
FTUS45 KRIW 190500
TAFBPI
TAF
KBPI 190523Z 1906/2006 34012G22KT P6SM VCTS SCT060CB BKN090
     FM191000 35005KT P6SM BKN100
     FM191800 31010KT P6SM SCT100
     FM200100 35006KT P6SM FEW110=

USA.gov is the U.S. government's official web portal to all federal, state and local government web resources and services.